Time;durP1;ratioP1;P1;durP2;ratioP2;P2;SDS_P1;SDS_P2;PMS_P1;PMS_P2;Temp;Humidity;BMP_temperature;BMP_pressure;BME280_temperature;BME280_humidity;BME280_pressure;Samples;Min_cycle;Max_cycle;Signal;HPM_P1;HPM_P2
2024/01/26 00:02:16;;;;;;;71.03;67.07;;;;;;;;;;5031088;28;20036;-60
2024/01/26 00:04:41;;;;;;;67.00;63.50;;;;;;;;;;5030673;28;20486;-60
2024/01/26 00:07:07;;;;;;;71.68;67.20;;;;;;;;;;5030078;28;20040;-60
2024/01/26 00:09:32;;;;;;;68.63;64.97;;;;;;;;;;5028134;28;20378;-60
2024/01/26 00:11:58;;;;;;;72.40;68.68;;;;;;;;;;5029096;28;20038;-62
2024/01/26 00:14:23;;;;;;;72.28;67.97;;;;;;;;;;5028960;28;20041;-60
2024/01/26 00:16:48;;;;;;;74.97;70.97;;;;;;;;;;5029878;28;20032;-60
2024/01/26 00:19:14;;;;;;;71.72;67.28;;;;;;;;;;5028389;28;20033;-60
2024/01/26 00:21:39;;;;;;;76.55;72.60;;;;;;;;;;5031113;28;20021;-60
2024/01/26 00:24:05;;;;;;;77.70;73.70;;;;;;;;;;5034072;28;20045;-60
2024/01/26 00:26:30;;;;;;;72.10;68.28;;;;;;;;;;5035708;28;20051;-60
2024/01/26 00:28:55;;;;;;;75.32;71.47;;;;;;;;;;5033986;28;20037;-60
2024/01/26 00:31:21;;;;;;;70.18;66.32;;;;;;;;;;5034345;28;20514;-64
2024/01/26 00:33:47;;;;;;;69.93;66.30;;;;;;;;;;5034319;28;20068;-64
2024/01/26 00:36:13;;;;;;;71.63;67.65;;;;;;;;;;5029779;28;20133;-64
2024/01/26 00:38:40;;;;;;;71.90;68.07;;;;;;;;;;5032527;28;20037;-64
2024/01/26 00:41:05;;;;;;;78.18;73.85;;;;;;;;;;5031658;28;20471;-64
2024/01/26 00:43:31;;;;;;;76.88;72.85;;;;;;;;;;5037508;28;20044;-64
2024/01/26 00:45:57;;;;;;;74.60;70.35;;;;;;;;;;5037115;28;20524;-65
2024/01/26 00:48:22;;;;;;;69.72;66.07;;;;;;;;;;5032455;28;20755;-64
2024/01/26 00:50:50;;;;;;;65.80;62.30;;;;;;;;;;5033540;28;20440;-64
2024/01/26 00:53:16;;;;;;;82.68;78.32;;;;;;;;;;5033639;28;20111;-64
2024/01/26 00:55:42;;;;;;;80.78;76.43;;;;;;;;;;5036531;28;20038;-64
2024/01/26 00:58:07;;;;;;;72.05;68.28;;;;;;;;;;5035149;28;20040;-64
2024/01/26 01:00:32;;;;;;;71.63;67.97;;;;;;;;;;5036202;28;20067;-64
2024/01/26 01:02:58;;;;;;;77.35;73.40;;;;;;;;;;5032729;28;20037;-64
2024/01/26 01:05:24;;;;;;;92.82;87.60;;;;;;;;;;5032890;28;20026;-64
2024/01/26 01:07:50;;;;;;;91.53;86.68;;;;;;;;;;5032742;28;20052;-64
2024/01/26 01:10:16;;;;;;;92.32;87.57;;;;;;;;;;5034659;28;20470;-64
2024/01/26 01:12:42;;;;;;;90.03;85.35;;;;;;;;;;5033431;28;20048;-64
2024/01/26 01:15:11;;;;;;;94.68;89.78;;;;;;;;;;5031951;28;20124;-64
2024/01/26 01:17:41;;;;;;;96.55;90.75;;;;;;;;;;5033445;28;20475;-64
2024/01/26 01:20:08;;;;;;;95.90;90.95;;;;;;;;;;5033825;28;20056;-64
2024/01/26 01:22:37;;;;;;;92.43;87.70;;;;;;;;;;5029661;28;20088;-60
2024/01/26 01:25:06;;;;;;;88.25;83.72;;;;;;;;;;5033745;28;20040;-60
2024/01/26 01:27:32;;;;;;;92.80;88.10;;;;;;;;;;5034175;28;20033;-60
2024/01/26 01:29:59;;;;;;;87.57;83.07;;;;;;;;;;5032674;28;20501;-60
2024/01/26 01:32:24;;;;;;;85.82;81.38;;;;;;;;;;5030433;28;20958;-61
2024/01/26 01:34:49;;;;;;;94.30;89.50;;;;;;;;;;5032757;28;20048;-60
2024/01/26 01:37:15;;;;;;;92.30;87.03;;;;;;;;;;5035172;28;20033;-60
2024/01/26 01:39:40;;;;;;;89.82;85.18;;;;;;;;;;5032958;28;20083;-60
2024/01/26 01:42:13;;;;;;;91.55;86.78;;;;;;;;;;5033414;28;20033;-60
2024/01/26 01:44:41;;;;;;;90.68;86.03;;;;;;;;;;5032267;28;20053;-60
2024/01/26 01:47:08;;;;;;;92.78;87.97;;;;;;;;;;5030706;28;20045;-60
2024/01/26 01:49:33;;;;;;;95.05;90.07;;;;;;;;;;5031776;28;20505;-60
2024/01/26 01:51:59;;;;;;;94.78;89.90;;;;;;;;;;5034051;28;20041;-60
2024/01/26 01:54:26;;;;;;;92.50;87.63;;;;;;;;;;5034806;28;20047;-60
2024/01/26 01:56:53;;;;;;;87.78;83.07;;;;;;;;;;5033743;28;20033;-60
2024/01/26 01:59:20;;;;;;;92.63;87.80;;;;;;;;;;5034648;28;20108;-60
2024/01/26 02:01:45;;;;;;;94.10;89.03;;;;;;;;;;5030353;28;20552;-60
2024/01/26 02:04:10;;;;;;;97.72;92.35;;;;;;;;;;5030107;28;20148;-60
2024/01/26 02:06:36;;;;;;;98.40;93.28;;;;;;;;;;5033386;28;20033;-60
2024/01/26 02:09:01;;;;;;;97.95;92.68;;;;;;;;;;5029836;28;20025;-60
2024/01/26 02:11:26;;;;;;;95.22;90.35;;;;;;;;;;5034796;28;20108;-60
2024/01/26 02:13:52;;;;;;;94.45;89.57;;;;;;;;;;5032013;28;20026;-60
2024/01/26 02:16:17;;;;;;;99.85;94.65;;;;;;;;;;5031910;28;20162;-60
2024/01/26 02:18:43;;;;;;;98.00;92.68;;;;;;;;;;5031512;28;20116;-59
2024/01/26 02:21:08;;;;;;;96.38;91.30;;;;;;;;;;5030808;28;20036;-60
2024/01/26 02:23:33;;;;;;;95.43;90.65;;;;;;;;;;5029978;28;20138;-60
2024/01/26 02:25:59;;;;;;;96.80;91.78;;;;;;;;;;5031232;28;20407;-60
2024/01/26 02:28:24;;;;;;;93.15;88.40;;;;;;;;;;5031247;28;20041;-60
2024/01/26 02:30:49;;;;;;;94.00;89.18;;;;;;;;;;5030011;28;20147;-60
2024/01/26 02:33:15;;;;;;;92.00;87.28;;;;;;;;;;5028874;28;20065;-60
2024/01/26 02:35:40;;;;;;;93.35;88.57;;;;;;;;;;5035256;28;20344;-60
2024/01/26 02:38:05;;;;;;;85.35;80.97;;;;;;;;;;5028957;28;20052;-60
2024/01/26 02:40:31;;;;;;;83.15;78.82;;;;;;;;;;5030699;28;20079;-60
2024/01/26 02:42:56;;;;;;;92.90;88.15;;;;;;;;;;5030491;28;20104;-60
2024/01/26 02:45:24;;;;;;;89.88;85.25;;;;;;;;;;5027435;28;20056;-60
2024/01/26 02:47:49;;;;;;;87.57;82.60;;;;;;;;;;5033122;28;20485;-60
2024/01/26 02:50:14;;;;;;;93.40;88.47;;;;;;;;;;5029660;28;20037;-60
2024/01/26 02:52:40;;;;;;;91.15;86.30;;;;;;;;;;5028707;28;20041;-60
2024/01/26 02:55:05;;;;;;;90.05;85.30;;;;;;;;;;5033217;28;20052;-60
2024/01/26 02:57:31;;;;;;;87.03;82.38;;;;;;;;;;5034714;28;20037;-60
2024/01/26 02:59:56;;;;;;;82.43;78.03;;;;;;;;;;5032220;28;20078;-60
2024/01/26 03:02:21;;;;;;;86.10;81.43;;;;;;;;;;5028888;28;20056;-60
2024/01/26 03:04:47;;;;;;;84.78;80.28;;;;;;;;;;5035598;28;20079;-60
2024/01/26 03:07:12;;;;;;;84.95;80.53;;;;;;;;;;5028792;28;20048;-60
2024/01/26 03:09:37;;;;;;;81.70;77.38;;;;;;;;;;5031272;28;20243;-60
2024/01/26 03:12:03;;;;;;;84.68;80.25;;;;;;;;;;5031590;28;20037;-60
2024/01/26 03:14:28;;;;;;;122.47;116.22;;;;;;;;;;5033898;28;20037;-60
2024/01/26 03:16:54;;;;;;;95.93;90.97;;;;;;;;;;5034768;28;20069;-60
2024/01/26 03:19:19;;;;;;;121.30;114.55;;;;;;;;;;5031006;28;20071;-60
2024/01/26 03:21:45;;;;;;;127.75;121.32;;;;;;;;;;5033094;28;21197;-64
2024/01/26 03:24:11;;;;;;;123.32;116.93;;;;;;;;;;5031015;28;20537;-64
2024/01/26 03:26:37;;;;;;;118.50;112.25;;;;;;;;;;5034242;28;20060;-64
2024/01/26 03:29:03;;;;;;;118.38;112.32;;;;;;;;;;5030604;28;20056;-64
2024/01/26 03:31:29;;;;;;;101.88;96.15;;;;;;;;;;5031671;28;20068;-64
2024/01/26 03:33:54;;;;;;;85.82;81.38;;;;;;;;;;5031542;28;20098;-64
2024/01/26 03:36:19;;;;;;;69.38;65.82;;;;;;;;;;5030438;28;20133;-64
2024/01/26 03:38:45;;;;;;;69.47;65.75;;;;;;;;;;5031522;28;20040;-65
2024/01/26 03:41:10;;;;;;;75.13;71.28;;;;;;;;;;5031169;28;20030;-64
2024/01/26 03:43:36;;;;;;;74.15;70.20;;;;;;;;;;5031318;28;20037;-64
2024/01/26 03:46:05;;;;;;;70.13;66.35;;;;;;;;;;5034137;28;20033;-64
2024/01/26 03:48:31;;;;;;;73.13;69.32;;;;;;;;;;5031723;28;20318;-64
2024/01/26 03:50:57;;;;;;;72.57;68.82;;;;;;;;;;5031982;28;20072;-64
2024/01/26 03:53:22;;;;;;;65.40;61.65;;;;;;;;;;5029147;28;20072;-64
2024/01/26 03:55:48;;;;;;;64.07;60.78;;;;;;;;;;5033209;28;20060;-64
2024/01/26 03:58:13;;;;;;;68.45;64.60;;;;;;;;;;5029325;28;20116;-64
2024/01/26 04:00:38;;;;;;;68.10;64.47;;;;;;;;;;5031808;28;20099;-64
2024/01/26 04:03:04;;;;;;;69.85;66.18;;;;;;;;;;5031899;28;20160;-64
2024/01/26 04:05:29;;;;;;;66.03;62.63;;;;;;;;;;5032807;28;20031;-63
2024/01/26 04:07:54;;;;;;;62.72;59.30;;;;;;;;;;5030828;28;20103;-64
2024/01/26 04:10:20;;;;;;;67.18;63.63;;;;;;;;;;5011099;28;20078;-64
2024/01/26 04:12:45;;;;;;;62.22;58.90;;;;;;;;;;5031945;28;20041;-63
2024/01/26 04:15:11;;;;;;;58.72;55.38;;;;;;;;;;5030855;28;20085;-63
2024/01/26 04:17:37;;;;;;;69.55;65.90;;;;;;;;;;5031772;28;20136;-63
2024/01/26 04:20:03;;;;;;;64.20;60.83;;;;;;;;;;5028130;28;20584;-63
2024/01/26 04:22:28;;;;;;;56.42;52.88;;;;;;;;;;5030357;28;20451;-64
2024/01/26 04:24:54;;;;;;;70.25;66.63;;;;;;;;;;5030515;28;20060;-64
2024/01/26 04:27:19;;;;;;;69.43;65.75;;;;;;;;;;5030824;28;20068;-64
2024/01/26 04:29:44;;;;;;;64.70;61.33;;;;;;;;;;5032435;28;20121;-63
2024/01/26 04:32:09;;;;;;;83.20;78.90;;;;;;;;;;5031342;28;20033;-64
2024/01/26 04:34:37;;;;;;;85.43;80.95;;;;;;;;;;5031964;28;20088;-59
2024/01/26 04:37:03;;;;;;;69.65;65.97;;;;;;;;;;5028284;28;20025;-60
2024/01/26 04:39:29;;;;;;;70.88;66.97;;;;;;;;;;5033591;28;20048;-59
2024/01/26 04:41:54;;;;;;;64.65;61.17;;;;;;;;;;5031497;28;20037;-59
2024/01/26 04:44:19;;;;;;;82.38;78.07;;;;;;;;;;5027427;28;20494;-59
2024/01/26 04:46:45;;;;;;;75.95;72.00;;;;;;;;;;5030456;28;20451;-63
2024/01/26 04:49:10;;;;;;;71.68;67.90;;;;;;;;;;5031149;28;20652;-59
2024/01/26 04:51:37;;;;;;;73.35;69.50;;;;;;;;;;5030093;28;20120;-59
2024/01/26 04:54:03;;;;;;;71.93;68.25;;;;;;;;;;5031990;28;20474;-59
2024/01/26 04:56:28;;;;;;;76.57;72.15;;;;;;;;;;5019730;28;20040;-59
2024/01/26 04:58:53;;;;;;;80.80;76.72;;;;;;;;;;5030375;28;20396;-59
2024/01/26 05:01:19;;;;;;;77.70;73.65;;;;;;;;;;5029154;28;20037;-63
2024/01/26 05:03:44;;;;;;;73.45;69.57;;;;;;;;;;5030970;28;20631;-59
2024/01/26 05:06:09;;;;;;;77.00;72.80;;;;;;;;;;5036326;28;20457;-62
2024/01/26 05:08:35;;;;;;;76.18;72.15;;;;;;;;;;5030340;28;20113;-60
2024/01/26 05:11:00;;;;;;;70.65;66.85;;;;;;;;;;5037175;28;20116;-59
2024/01/26 05:13:25;;;;;;;99.80;94.75;;;;;;;;;;5033121;28;20224;-59
2024/01/26 05:15:51;;;;;;;119.22;113.22;;;;;;;;;;5035161;28;20051;-59
2024/01/26 05:18:16;;;;;;;116.50;110.50;;;;;;;;;;5032575;28;20037;-59
2024/01/26 05:20:42;;;;;;;102.18;97.05;;;;;;;;;;5033560;28;20102;-59
2024/01/26 05:23:07;;;;;;;86.53;82.05;;;;;;;;;;5034609;28;20513;-59
2024/01/26 05:25:33;;;;;;;84.35;80.10;;;;;;;;;;5037796;28;20037;-59
2024/01/26 05:27:58;;;;;;;117.05;111.22;;;;;;;;;;5036464;28;20730;-59
2024/01/26 05:30:24;;;;;;;113.63;107.88;;;;;;;;;;5033469;28;20033;-59
2024/01/26 05:32:49;;;;;;;112.55;106.80;;;;;;;;;;5036571;28;20479;-63
2024/01/26 05:35:14;;;;;;;103.55;98.40;;;;;;;;;;5032220;28;20482;-63
2024/01/26 05:37:40;;;;;;;96.15;91.30;;;;;;;;;;5032106;28;20106;-64
2024/01/26 05:40:09;;;;;;;94.68;89.80;;;;;;;;;;5033717;28;20051;-64
2024/01/26 05:42:34;;;;;;;98.78;93.80;;;;;;;;;;5029135;28;20096;-63
2024/01/26 05:45:01;;;;;;;92.00;87.35;;;;;;;;;;5033458;28;20139;-63
2024/01/26 05:47:26;;;;;;;91.22;86.68;;;;;;;;;;5033581;28;20048;-63
2024/01/26 05:49:52;;;;;;;88.95;84.55;;;;;;;;;;5037620;28;20037;-59
2024/01/26 05:52:17;;;;;;;88.32;83.88;;;;;;;;;;5034382;28;20025;-59
2024/01/26 05:54:42;;;;;;;81.90;77.75;;;;;;;;;;5034087;28;20037;-63
2024/01/26 05:57:08;;;;;;;84.60;80.35;;;;;;;;;;5032048;28;20021;-59
2024/01/26 05:59:37;;;;;;;96.65;91.57;;;;;;;;;;5035388;28;20048;-59
2024/01/26 06:02:03;;;;;;;77.60;73.45;;;;;;;;;;5032436;28;20466;-59
2024/01/26 06:04:29;;;;;;;84.32;80.07;;;;;;;;;;5036116;28;20095;-59
2024/01/26 06:06:54;;;;;;;82.07;77.90;;;;;;;;;;5033146;28;20037;-59
2024/01/26 06:09:19;;;;;;;86.43;81.65;;;;;;;;;;5032575;28;20040;-63
2024/01/26 06:11:45;;;;;;;81.03;76.97;;;;;;;;;;5034744;28;20028;-59
2024/01/26 06:14:10;;;;;;;87.53;83.18;;;;;;;;;;5032476;28;20392;-59
2024/01/26 06:16:35;;;;;;;85.65;81.40;;;;;;;;;;5032084;28;20048;-59
2024/01/26 06:19:01;;;;;;;90.85;86.32;;;;;;;;;;5031653;28;20038;-59
2024/01/26 06:21:26;;;;;;;89.47;84.95;;;;;;;;;;5034412;28;20042;-59
2024/01/26 06:23:51;;;;;;;93.25;88.55;;;;;;;;;;5031488;28;20118;-64
2024/01/26 06:26:19;;;;;;;95.32;89.20;;;;;;;;;;5031052;28;20046;-64
2024/01/26 06:28:45;;;;;;;90.93;86.43;;;;;;;;;;5031896;28;20128;-64
2024/01/26 06:31:10;;;;;;;111.47;105.95;;;;;;;;;;5032848;28;20121;-63
2024/01/26 06:33:35;;;;;;;118.03;112.15;;;;;;;;;;5034075;28;20048;-63
2024/01/26 06:36:01;;;;;;;100.95;95.95;;;;;;;;;;5031527;28;20033;-62
2024/01/26 06:38:26;;;;;;;97.97;92.88;;;;;;;;;;5031695;28;20044;-62
2024/01/26 06:40:52;;;;;;;100.38;95.40;;;;;;;;;;5031918;28;20044;-62
2024/01/26 06:43:18;;;;;;;101.32;96.22;;;;;;;;;;5032820;28;20044;-63
2024/01/26 06:45:44;;;;;;;100.00;95.05;;;;;;;;;;5034075;28;20041;-63
2024/01/26 06:48:09;;;;;;;99.00;94.05;;;;;;;;;;5032152;28;20670;-63
2024/01/26 06:50:34;;;;;;;102.90;97.78;;;;;;;;;;5032191;28;20171;-63
2024/01/26 06:53:00;;;;;;;99.75;94.78;;;;;;;;;;5029410;28;20033;-63
2024/01/26 06:55:25;;;;;;;104.30;99.10;;;;;;;;;;5030396;28;20056;-63
2024/01/26 06:57:50;;;;;;;96.80;91.80;;;;;;;;;;5034294;28;20137;-63
2024/01/26 07:00:16;;;;;;;99.13;94.22;;;;;;;;;;5033143;28;20855;-63
2024/01/26 07:02:42;;;;;;;95.57;90.60;;;;;;;;;;5034116;28;20032;-63
2024/01/26 07:05:07;;;;;;;89.53;85.05;;;;;;;;;;5030294;28;20403;-63
2024/01/26 07:07:32;;;;;;;91.22;86.68;;;;;;;;;;5029055;28;20030;-63
2024/01/26 07:09:58;;;;;;;96.38;91.63;;;;;;;;;;5026457;28;20033;-63
2024/01/26 07:12:23;;;;;;;94.97;90.25;;;;;;;;;;5028463;28;20096;-63
2024/01/26 07:14:48;;;;;;;97.05;92.22;;;;;;;;;;5033327;28;20036;-64
2024/01/26 07:17:14;;;;;;;98.32;93.35;;;;;;;;;;5030541;28;20764;-63
2024/01/26 07:19:39;;;;;;;109.70;104.22;;;;;;;;;;5032497;28;20037;-63
2024/01/26 07:22:05;;;;;;;99.70;94.75;;;;;;;;;;5031099;28;20064;-63
2024/01/26 07:24:31;;;;;;;94.13;89.40;;;;;;;;;;5032730;28;20570;-63
2024/01/26 07:26:56;;;;;;;96.57;91.72;;;;;;;;;;5031275;28;20099;-63
2024/01/26 07:29:21;;;;;;;118.53;112.60;;;;;;;;;;5031115;28;20044;-63
2024/01/26 07:31:46;;;;;;;114.22;108.20;;;;;;;;;;5032354;28;20037;-63
2024/01/26 07:34:12;;;;;;;74.13;70.38;;;;;;;;;;5033772;28;20079;-63
2024/01/26 07:36:38;;;;;;;74.90;71.13;;;;;;;;;;5033051;28;20029;-63
2024/01/26 07:39:05;;;;;;;75.00;71.15;;;;;;;;;;5031415;28;20037;-63
2024/01/26 07:41:31;;;;;;;78.88;74.93;;;;;;;;;;5027637;28;20115;-63
2024/01/26 07:43:56;;;;;;;81.80;77.72;;;;;;;;;;5030849;28;20120;-64
2024/01/26 07:46:21;;;;;;;81.15;77.10;;;;;;;;;;5029435;28;20040;-63
2024/01/26 07:48:47;;;;;;;76.00;72.22;;;;;;;;;;5021833;28;20038;-64
2024/01/26 07:51:12;;;;;;;73.35;69.70;;;;;;;;;;5027444;28;20033;-63
2024/01/26 07:53:37;;;;;;;81.38;77.25;;;;;;;;;;5027702;28;20033;-64
2024/01/26 07:56:03;;;;;;;76.82;73.00;;;;;;;;;;5027447;28;20048;-63
2024/01/26 07:58:28;;;;;;;80.75;76.68;;;;;;;;;;5025921;28;20041;-64
2024/01/26 08:00:53;;;;;;;81.80;77.53;;;;;;;;;;5027860;28;21062;-63
2024/01/26 08:03:19;;;;;;;82.90;78.75;;;;;;;;;;5023070;28;20084;-63
2024/01/26 08:05:44;;;;;;;82.47;77.93;;;;;;;;;;5027328;28;20117;-64
2024/01/26 08:08:09;;;;;;;78.65;74.68;;;;;;;;;;5025543;28;20029;-64
2024/01/26 08:10:35;;;;;;;87.70;83.28;;;;;;;;;;5028777;28;20042;-64
2024/01/26 08:13:00;;;;;;;102.82;97.70;;;;;;;;;;5028401;28;20425;-64
2024/01/26 08:15:26;;;;;;;101.95;96.90;;;;;;;;;;5030520;28;20029;-63
2024/01/26 08:17:51;;;;;;;100.38;95.28;;;;;;;;;;5027322;28;20040;-63
2024/01/26 08:20:17;;;;;;;105.70;100.43;;;;;;;;;;5025305;28;20080;-63
2024/01/26 08:22:43;;;;;;;99.97;95.03;;;;;;;;;;5030677;28;20045;-64
2024/01/26 08:25:09;;;;;;;103.90;98.75;;;;;;;;;;5029332;28;20411;-64
2024/01/26 08:27:35;;;;;;;98.43;93.55;;;;;;;;;;5027409;28;20098;-58
2024/01/26 08:30:01;;;;;;;81.93;77.78;;;;;;;;;;5028411;28;20502;-59
2024/01/26 08:32:26;;;;;;;91.55;86.90;;;;;;;;;;5030429;28;20462;-58
2024/01/26 08:34:51;;;;;;;97.28;92.43;;;;;;;;;;5029546;28;20453;-59
2024/01/26 08:37:17;;;;;;;96.57;91.80;;;;;;;;;;5024999;28;20542;-59
2024/01/26 08:39:45;;;;;;;99.47;94.55;;;;;;;;;;5029890;28;20036;-59
2024/01/26 08:42:12;;;;;;;99.78;94.82;;;;;;;;;;5022182;28;20088;-59
2024/01/26 08:44:37;;;;;;;101.20;96.18;;;;;;;;;;5035670;28;20595;-59
2024/01/26 08:47:03;;;;;;;101.55;96.47;;;;;;;;;;5032736;28;20036;-58
2024/01/26 08:49:29;;;;;;;108.93;103.47;;;;;;;;;;5031461;28;20144;-57
2024/01/26 08:51:57;;;;;;;100.55;95.57;;;;;;;;;;5035736;28;20041;-56
2024/01/26 08:54:23;;;;;;;108.82;103.38;;;;;;;;;;5036012;28;20041;-58
2024/01/26 08:56:49;;;;;;;107.13;101.85;;;;;;;;;;5036784;28;20063;-58
2024/01/26 08:59:14;;;;;;;109.32;103.88;;;;;;;;;;5034525;28;20035;-58
2024/01/26 09:01:39;;;;;;;119.05;113.13;;;;;;;;;;5031483;28;20128;-58
2024/01/26 09:04:08;;;;;;;104.30;99.10;;;;;;;;;;5035593;28;20477;-57
2024/01/26 09:06:37;;;;;;;111.13;105.63;;;;;;;;;;5032637;28;20450;-57
2024/01/26 09:09:03;;;;;;;108.20;102.88;;;;;;;;;;5033527;28;20037;-56
2024/01/26 09:11:29;;;;;;;114.30;108.65;;;;;;;;;;5035902;28;20045;-57
2024/01/26 09:13:56;;;;;;;119.00;113.13;;;;;;;;;;5031703;28;20421;-57
2024/01/26 09:16:21;;;;;;;102.28;97.20;;;;;;;;;;5031803;28;21422;-57
2024/01/26 09:18:46;;;;;;;99.32;94.43;;;;;;;;;;5030481;28;20041;-58
2024/01/26 09:21:12;;;;;;;105.95;100.72;;;;;;;;;;5035565;28;20030;-58
2024/01/26 09:23:38;;;;;;;110.80;105.30;;;;;;;;;;5031732;28;20036;-57
2024/01/26 09:26:03;;;;;;;107.75;102.40;;;;;;;;;;5035950;28;20045;-58
2024/01/26 09:28:29;;;;;;;107.88;102.55;;;;;;;;;;5033036;28;20434;-58
2024/01/26 09:30:54;;;;;;;113.95;108.35;;;;;;;;;;5032887;28;20099;-57
2024/01/26 09:33:19;;;;;;;109.60;104.15;;;;;;;;;;5033773;28;20112;-55
2024/01/26 09:35:45;;;;;;;110.40;104.95;;;;;;;;;;5032755;28;20336;-56
2024/01/26 09:38:11;;;;;;;112.22;106.68;;;;;;;;;;5033148;28;20039;-56
2024/01/26 09:40:36;;;;;;;114.72;109.05;;;;;;;;;;5029640;28;20411;-58
2024/01/26 09:43:02;;;;;;;112.32;106.75;;;;;;;;;;5033320;28;20195;-56
2024/01/26 09:45:27;;;;;;;111.78;106.22;;;;;;;;;;5029236;28;20037;-59
2024/01/26 09:47:52;;;;;;;119.95;113.90;;;;;;;;;;5033655;28;20438;-59
2024/01/26 09:50:21;;;;;;;126.35;120.13;;;;;;;;;;5029893;28;20038;-59
2024/01/26 09:52:47;;;;;;;117.40;111.60;;;;;;;;;;5030794;28;20504;-59
2024/01/26 09:55:14;;;;;;;110.70;104.95;;;;;;;;;;5029104;28;20112;-59
2024/01/26 09:57:42;;;;;;;118.47;112.60;;;;;;;;;;5030386;28;20041;-59
2024/01/26 10:00:10;;;;;;;125.10;118.82;;;;;;;;;;5032923;28;20170;-59
2024/01/26 10:02:35;;;;;;;127.45;121.10;;;;;;;;;;5034085;28;20025;-59
2024/01/26 10:05:01;;;;;;;130.63;123.95;;;;;;;;;;5034476;28;20341;-59
2024/01/26 10:07:26;;;;;;;117.45;111.35;;;;;;;;;;5030250;28;20044;-59
2024/01/26 10:09:51;;;;;;;119.45;113.55;;;;;;;;;;5036159;28;20037;-59
2024/01/26 10:12:17;;;;;;;119.88;113.95;;;;;;;;;;5033598;28;20118;-59
2024/01/26 10:14:42;;;;;;;115.03;109.32;;;;;;;;;;5026234;28;20047;-58
2024/01/26 10:17:07;;;;;;;118.25;112.35;;;;;;;;;;5036774;28;20037;-58
2024/01/26 10:19:34;;;;;;;124.93;118.70;;;;;;;;;;5034878;28;20051;-59
2024/01/26 10:22:00;;;;;;;121.82;115.80;;;;;;;;;;5031456;28;20765;-59
2024/01/26 10:24:26;;;;;;;126.20;119.85;;;;;;;;;;5032381;28;20032;-60
2024/01/26 10:26:54;;;;;;;121.85;115.85;;;;;;;;;;5031189;28;20048;-59
2024/01/26 10:29:22;;;;;;;115.00;109.30;;;;;;;;;;5032069;28;20025;-59
2024/01/26 10:31:50;;;;;;;107.82;102.47;;;;;;;;;;5035180;28;20072;-59
2024/01/26 10:34:16;;;;;;;118.15;112.30;;;;;;;;;;5033114;28;20372;-59
2024/01/26 10:36:44;;;;;;;119.85;113.90;;;;;;;;;;5032564;28;20044;-60
2024/01/26 10:39:29;;;;;;;123.32;117.20;;;;;;;;;;5031448;28;20051;-59
2024/01/26 10:42:03;;;;;;;105.10;99.82;;;;;;;;;;5033970;28;20017;-59
2024/01/26 10:44:30;;;;;;;98.38;93.38;;;;;;;;;;5034273;28;20052;-59
2024/01/26 10:46:58;;;;;;;113.57;107.93;;;;;;;;;;5035470;28;20056;-60
2024/01/26 10:49:25;;;;;;;122.78;116.68;;;;;;;;;;5032336;28;20517;-59
2024/01/26 10:51:52;;;;;;;113.85;108.10;;;;;;;;;;5032196;28;20103;-60
2024/01/26 10:54:17;;;;;;;137.27;130.40;;;;;;;;;;5033077;28;20044;-59
2024/01/26 10:56:42;;;;;;;124.25;118.10;;;;;;;;;;5036382;28;20044;-60
2024/01/26 10:59:10;;;;;;;128.77;122.38;;;;;;;;;;5034153;28;20061;-59
2024/01/26 11:01:39;;;;;;;132.05;125.53;;;;;;;;;;5032285;28;20041;-59
2024/01/26 11:04:07;;;;;;;117.60;111.75;;;;;;;;;;5034198;28;20045;-59
2024/01/26 11:06:34;;;;;;;119.10;113.18;;;;;;;;;;5033581;28;20025;-59
2024/01/26 11:09:01;;;;;;;121.20;115.18;;;;;;;;;;5031763;28;20037;-59
2024/01/26 11:11:31;;;;;;;118.70;112.80;;;;;;;;;;5031898;28;20061;-59
2024/01/26 11:14:00;;;;;;;109.10;103.70;;;;;;;;;;5030346;28;20033;-59
2024/01/26 11:16:34;;;;;;;115.72;110.00;;;;;;;;;;5030973;28;20784;-60
2024/01/26 11:19:01;;;;;;;118.88;113.00;;;;;;;;;;5031802;28;20502;-60
2024/01/26 11:21:39;;;;;;;108.38;103.00;;;;;;;;;;5031817;28;20025;-59
2024/01/26 11:24:12;;;;;;;104.22;99.03;;;;;;;;;;5032228;28;20041;-60
2024/01/26 11:26:38;;;;;;;112.95;107.35;;;;;;;;;;5032517;28;20021;-60
2024/01/26 11:29:13;;;;;;;112.90;107.32;;;;;;;;;;5033008;28;20037;-60
2024/01/26 11:31:41;;;;;;;108.65;103.25;;;;;;;;;;5030935;28;20954;-60
2024/01/26 11:34:17;;;;;;;96.80;92.00;;;;;;;;;;5033321;28;20064;-59
2024/01/26 11:36:42;;;;;;;87.38;83.00;;;;;;;;;;5032391;28;20041;-60
2024/01/26 11:39:13;;;;;;;93.90;89.20;;;;;;;;;;5031732;28;20029;-60
2024/01/26 11:41:42;;;;;;;88.18;83.78;;;;;;;;;;5032298;28;20033;-60
2024/01/26 11:44:18;;;;;;;78.10;74.22;;;;;;;;;;5035164;28;20112;-60
2024/01/26 11:46:43;;;;;;;72.28;68.68;;;;;;;;;;5029594;28;20506;-60
2024/01/26 11:49:08;;;;;;;70.97;67.43;;;;;;;;;;5036585;28;20116;-60
2024/01/26 11:51:34;;;;;;;67.38;64.00;;;;;;;;;;5035461;28;20033;-60
2024/01/26 11:53:59;;;;;;;66.32;63.00;;;;;;;;;;5032410;28;20131;-60
2024/01/26 11:56:25;;;;;;;62.60;59.45;;;;;;;;;;5033477;28;20045;-60
2024/01/26 11:58:51;;;;;;;66.25;62.85;;;;;;;;;;5031621;28;20204;-61
2024/01/26 12:01:16;;;;;;;65.72;62.42;;;;;;;;;;5032106;28;20034;-60
2024/01/26 12:03:41;;;;;;;75.78;72.03;;;;;;;;;;5034071;28;20025;-61
2024/01/26 12:06:07;;;;;;;71.32;67.78;;;;;;;;;;5033828;28;20033;-59
2024/01/26 12:08:32;;;;;;;72.28;68.70;;;;;;;;;;5033062;28;20064;-60
2024/01/26 12:10:57;;;;;;;72.65;69.03;;;;;;;;;;5033629;28;20043;-58
2024/01/26 12:13:23;;;;;;;70.22;66.72;;;;;;;;;;5033789;28;20048;-58
2024/01/26 12:15:49;;;;;;;67.45;64.07;;;;;;;;;;5031447;28;23787;-60
2024/01/26 12:18:16;;;;;;;69.43;65.97;;;;;;;;;;5030582;28;20052;-59
2024/01/26 12:20:41;;;;;;;68.75;65.32;;;;;;;;;;5030246;28;20033;-58
2024/01/26 12:23:24;;;;;;;65.88;62.58;;;;;;;;;;5031889;28;20068;-59
2024/01/26 12:25:51;;;;;;;67.03;63.67;;;;;;;;;;5031718;28;21653;-58
2024/01/26 12:28:16;;;;;;;72.20;68.60;;;;;;;;;;5032795;28;20051;-58
2024/01/26 12:30:45;;;;;;;70.85;67.30;;;;;;;;;;5031501;28;20033;-58
2024/01/26 12:33:11;;;;;;;67.88;64.47;;;;;;;;;;5031815;28;20394;-58
2024/01/26 12:35:40;;;;;;;65.13;61.83;;;;;;;;;;5031551;28;20041;-59
2024/01/26 12:38:06;;;;;;;69.80;66.30;;;;;;;;;;5029026;28;20069;-59
2024/01/26 12:40:31;;;;;;;64.07;60.88;;;;;;;;;;5032150;28;20482;-59
2024/01/26 12:42:57;;;;;;;65.00;61.75;;;;;;;;;;5030986;28;20037;-58
2024/01/26 12:45:22;;;;;;;61.80;58.67;;;;;;;;;;5027537;28;20565;-59
2024/01/26 12:47:47;;;;;;;61.83;58.72;;;;;;;;;;5027742;28;20443;-58
2024/01/26 12:50:13;;;;;;;60.22;57.17;;;;;;;;;;5029226;28;20352;-59
2024/01/26 12:52:39;;;;;;;59.83;56.53;;;;;;;;;;5027630;28;20882;-59
2024/01/26 12:55:05;;;;;;;61.17;58.10;;;;;;;;;;5031534;28;20037;-59
2024/01/26 12:57:30;;;;;;;58.58;55.63;;;;;;;;;;5031397;28;20591;-58
2024/01/26 12:59:55;;;;;;;57.08;54.20;;;;;;;;;;5029330;28;20034;-59
2024/01/26 13:02:21;;;;;;;56.67;53.80;;;;;;;;;;5026157;28;20092;-59
2024/01/26 13:04:49;;;;;;;55.35;52.58;;;;;;;;;;5018382;28;20029;-58
2024/01/26 13:07:15;;;;;;;55.60;52.80;;;;;;;;;;5020909;28;20052;-59
2024/01/26 13:09:41;;;;;;;49.50;47.00;;;;;;;;;;5023966;28;20076;-60
2024/01/26 13:12:07;;;;;;;48.88;46.40;;;;;;;;;;5025414;28;20991;-59
2024/01/26 13:14:32;;;;;;;47.72;45.33;;;;;;;;;;5028825;28;20041;-58
2024/01/26 13:16:59;;;;;;;47.90;45.47;;;;;;;;;;5028464;28;20053;-58
2024/01/26 13:19:25;;;;;;;48.42;45.95;;;;;;;;;;5026154;28;20041;-57
2024/01/26 13:21:50;;;;;;;51.75;49.17;;;;;;;;;;5029714;28;20032;-59
2024/01/26 13:24:16;;;;;;;47.17;44.78;;;;;;;;;;5028102;28;20607;-63
2024/01/26 13:26:42;;;;;;;48.25;45.80;;;;;;;;;;5029100;28;20022;-64
2024/01/26 13:29:08;;;;;;;47.58;45.17;;;;;;;;;;5027121;28;20056;-59
2024/01/26 13:31:34;;;;;;;48.15;45.70;;;;;;;;;;5030828;28;20044;-59
2024/01/26 13:33:59;;;;;;;49.75;47.25;;;;;;;;;;5026471;28;20037;-58
2024/01/26 13:36:24;;;;;;;52.08;49.42;;;;;;;;;;5028474;28;20043;-59
2024/01/26 13:38:50;;;;;;;52.20;49.58;;;;;;;;;;5030756;28;20029;-59
2024/01/26 13:41:16;;;;;;;55.75;52.95;;;;;;;;;;5034189;28;20455;-59
2024/01/26 13:43:43;;;;;;;59.30;56.33;;;;;;;;;;5030839;28;20044;-59
2024/01/26 13:46:09;;;;;;;65.43;62.15;;;;;;;;;;5032227;28;20103;-59
2024/01/26 13:48:34;;;;;;;64.68;61.47;;;;;;;;;;5028511;28;20048;-59
2024/01/26 13:51:00;;;;;;;62.72;59.60;;;;;;;;;;5035527;28;20044;-59
2024/01/26 13:53:26;;;;;;;49.60;47.00;;;;;;;;;;5033891;28;20033;-59
2024/01/26 13:55:51;;;;;;;39.08;37.08;;;;;;;;;;5027874;28;20049;-58
2024/01/26 13:58:17;;;;;;;39.15;37.15;;;;;;;;;;5033540;28;20041;-58
2024/01/26 14:00:44;;;;;;;40.85;38.80;;;;;;;;;;5033942;28;20048;-58
2024/01/26 14:03:10;;;;;;;39.17;37.17;;;;;;;;;;5031615;28;20025;-59
2024/01/26 14:05:37;;;;;;;36.22;34.35;;;;;;;;;;5032289;28;20037;-58